Time;durP1;ratioP1;P1;durP2;ratioP2;P2;SDS_P1;SDS_P2;PMS_P1;PMS_P2;Temp;Humidity;BMP_temperature;BMP_pressure;BME280_temperature;BME280_humidity;BME280_pressure;Samples;Min_cycle;Max_cycle;Signal;HPM_P1;HPM_P2
2023/10/31 00:01:50;;;;;;;0.45;0.45;;;;;;;;;;10169154;29;20519;-76
2023/10/31 00:06:53;;;;;;;0.47;0.20;;;;;;;;;;10168550;29;20139;-76
2023/10/31 00:11:57;;;;;;;0.25;0.25;;;;;;;;;;10170626;29;20044;-76
2023/10/31 00:17:01;;;;;;;0.63;0.30;;;;;;;;;;10167922;29;20070;-76
2023/10/31 00:22:05;;;;;;;0.17;0.17;;;;;;;;;;10168528;29;20469;-76
2023/10/31 00:27:08;;;;;;;0.75;0.30;;;;;;;;;;10148648;29;20051;-76
2023/10/31 00:32:13;;;;;;;2.17;0.35;;;;;;;;;;10167278;29;20048;-76
2023/10/31 00:37:17;;;;;;;0.30;0.30;;;;;;;;;;10165333;29;20131;-76
2023/10/31 00:42:20;;;;;;;0.95;0.40;;;;;;;;;;10159956;29;20434;-76
2023/10/31 00:47:25;;;;;;;0.47;0.30;;;;;;;;;;10165297;29;20048;-75
2023/10/31 00:52:28;;;;;;;0.35;0.20;;;;;;;;;;10164671;29;20053;-76
2023/10/31 00:57:31;;;;;;;0.88;0.20;;;;;;;;;;10163335;29;20044;-76
2023/10/31 01:02:36;;;;;;;0.20;0.20;;;;;;;;;;10160666;29;20143;-75
2023/10/31 01:07:39;;;;;;;1.13;0.30;;;;;;;;;;10165852;29;20429;-76
2023/10/31 01:12:43;;;;;;;0.22;0.20;;;;;;;;;;10164945;29;20135;-75
2023/10/31 01:17:48;;;;;;;0.65;0.40;;;;;;;;;;10165563;29;20050;-75
2023/10/31 01:22:52;;;;;;;0.50;0.30;;;;;;;;;;10165334;29;20040;-76
2023/10/31 01:27:55;;;;;;;0.20;0.20;;;;;;;;;;10161913;29;20320;-75
2023/10/31 01:32:59;;;;;;;0.60;0.40;;;;;;;;;;10164923;29;20047;-75
2023/10/31 01:38:03;;;;;;;0.20;0.20;;;;;;;;;;10163881;29;20052;-75
2023/10/31 01:43:06;;;;;;;0.20;0.20;;;;;;;;;;10162102;29;20510;-75
2023/10/31 01:48:11;;;;;;;0.25;0.22;;;;;;;;;;10147087;29;20578;-75
2023/10/31 01:53:15;;;;;;;0.20;0.20;;;;;;;;;;10162279;29;20032;-75
2023/10/31 01:58:18;;;;;;;0.20;0.20;;;;;;;;;;10163879;29;20036;-75
2023/10/31 02:03:23;;;;;;;0.10;0.10;;;;;;;;;;10162856;29;20277;-75
2023/10/31 02:08:26;;;;;;;0.30;0.30;;;;;;;;;;10163281;29;20055;-75
2023/10/31 02:13:30;;;;;;;0.52;0.22;;;;;;;;;;10163639;29;20413;-75
2023/10/31 02:18:35;;;;;;;0.30;0.25;;;;;;;;;;10159522;29;20166;-75
2023/10/31 02:23:40;;;;;;;0.47;0.20;;;;;;;;;;10152523;29;20048;-75
2023/10/31 02:28:44;;;;;;;0.55;0.43;;;;;;;;;;10157784;29;20058;-75
2023/10/31 02:33:47;;;;;;;0.32;0.30;;;;;;;;;;10157045;29;20064;-75
2023/10/31 02:38:52;;;;;;;0.60;0.40;;;;;;;;;;10163858;29;20091;-75
2023/10/31 02:43:56;;;;;;;0.60;0.30;;;;;;;;;;10161165;29;20048;-75
2023/10/31 02:48:59;;;;;;;0.45;0.22;;;;;;;;;;10158755;29;20052;-75
2023/10/31 02:54:05;;;;;;;1.17;0.60;;;;;;;;;;10162333;29;20067;-75
2023/10/31 02:59:08;;;;;;;0.53;0.40;;;;;;;;;;10152418;29;20060;-75
2023/10/31 03:04:11;;;;;;;0.50;0.30;;;;;;;;;;10166469;29;20236;-76
2023/10/31 03:09:16;;;;;;;0.30;0.30;;;;;;;;;;10153170;29;20040;-75
2023/10/31 03:14:19;;;;;;;0.30;0.30;;;;;;;;;;10177235;29;20060;-75
2023/10/31 03:19:24;;;;;;;0.45;0.30;;;;;;;;;;10153531;29;20760;-75
2023/10/31 03:24:29;;;;;;;0.32;0.30;;;;;;;;;;10162438;29;20107;-75
2023/10/31 03:29:34;;;;;;;0.80;0.32;;;;;;;;;;10163444;29;20044;-75
2023/10/31 03:34:38;;;;;;;1.38;0.40;;;;;;;;;;10150430;29;20074;-75
2023/10/31 03:39:42;;;;;;;0.47;0.45;;;;;;;;;;10165716;29;20134;-75
2023/10/31 03:44:46;;;;;;;0.50;0.40;;;;;;;;;;10151411;29;20574;-75
2023/10/31 03:49:50;;;;;;;0.47;0.47;;;;;;;;;;10141387;29;20514;-75
2023/10/31 03:54:54;;;;;;;2.25;0.45;;;;;;;;;;10149647;29;20238;-75
2023/10/31 03:59:57;;;;;;;0.50;0.40;;;;;;;;;;10150409;29;20045;-75
2023/10/31 04:05:02;;;;;;;0.82;0.40;;;;;;;;;;10161090;29;20044;-75
2023/10/31 04:10:09;;;;;;;0.30;0.30;;;;;;;;;;10158282;29;20079;-75
2023/10/31 04:15:13;;;;;;;0.43;0.43;;;;;;;;;;10166159;29;20123;-75
2023/10/31 04:20:16;;;;;;;2.15;0.30;;;;;;;;;;10154678;29;20048;-75
2023/10/31 04:25:21;;;;;;;0.20;0.20;;;;;;;;;;10161165;29;20558;-75
2023/10/31 04:30:24;;;;;;;0.35;0.30;;;;;;;;;;10166207;29;20517;-76
2023/10/31 04:35:27;;;;;;;0.30;0.30;;;;;;;;;;10140781;29;20051;-75
2023/10/31 04:40:32;;;;;;;0.50;0.40;;;;;;;;;;10159058;29;20044;-75
2023/10/31 04:45:35;;;;;;;1.13;0.50;;;;;;;;;;10163809;29;20048;-75
2023/10/31 04:50:38;;;;;;;1.30;0.68;;;;;;;;;;10152138;29;20848;-75
2023/10/31 04:55:43;;;;;;;2.28;0.65;;;;;;;;;;10164764;29;20197;-75
2023/10/31 05:00:47;;;;;;;0.40;0.40;;;;;;;;;;10163381;29;20144;-75
2023/10/31 05:05:50;;;;;;;0.32;0.30;;;;;;;;;;10157202;29;20143;-75
2023/10/31 05:10:55;;;;;;;0.30;0.30;;;;;;;;;;10164917;29;20430;-75
2023/10/31 05:15:59;;;;;;;1.55;0.40;;;;;;;;;;10161721;29;20044;-75
2023/10/31 05:21:02;;;;;;;0.90;0.45;;;;;;;;;;10166009;29;20087;-75
2023/10/31 05:26:08;;;;;;;0.73;0.40;;;;;;;;;;10145543;29;20399;-75
2023/10/31 05:31:12;;;;;;;0.65;0.40;;;;;;;;;;10158597;29;20068;-75
2023/10/31 05:36:23;;;;;;;0.77;0.70;;;;;;;;;;10157598;29;20538;-75
2023/10/31 05:41:27;;;;;;;1.27;0.60;;;;;;;;;;10160075;29;20051;-75
2023/10/31 05:46:31;;;;;;;0.32;0.32;;;;;;;;;;10171057;29;20082;-75
2023/10/31 05:51:35;;;;;;;1.58;0.60;;;;;;;;;;10163880;29;20070;-75
2023/10/31 05:56:39;;;;;;;1.45;0.50;;;;;;;;;;10155619;29;20518;-76
2023/10/31 06:01:43;;;;;;;1.77;0.80;;;;;;;;;;10164227;29;20745;-75
2023/10/31 06:06:46;;;;;;;0.40;0.40;;;;;;;;;;10163908;29;20387;-75
2023/10/31 06:11:51;;;;;;;0.90;0.80;;;;;;;;;;10160831;29;20062;-75
2023/10/31 06:16:56;;;;;;;0.50;0.50;;;;;;;;;;10163473;29;20056;-75
2023/10/31 06:21:59;;;;;;;0.80;0.70;;;;;;;;;;10164662;29;20063;-75
2023/10/31 06:27:04;;;;;;;1.25;0.60;;;;;;;;;;10166676;29;20055;-76
2023/10/31 06:32:08;;;;;;;0.50;0.50;;;;;;;;;;10177441;29;20054;-75
2023/10/31 06:37:11;;;;;;;1.02;0.68;;;;;;;;;;10161805;29;20056;-75
2023/10/31 06:42:16;;;;;;;1.58;0.70;;;;;;;;;;10164120;29;20056;-75
2023/10/31 06:47:19;;;;;;;1.10;0.80;;;;;;;;;;10170096;29;20328;-75
2023/10/31 06:52:23;;;;;;;1.48;0.63;;;;;;;;;;10171193;29;20054;-75
2023/10/31 06:57:27;;;;;;;0.65;0.60;;;;;;;;;;10169931;29;20070;-75
2023/10/31 07:02:31;;;;;;;0.47;0.47;;;;;;;;;;10168352;29;20052;-75
2023/10/31 07:07:34;;;;;;;1.45;1.08;;;;;;;;;;10165395;29;20055;-75
2023/10/31 07:12:39;;;;;;;0.90;0.60;;;;;;;;;;10168528;29;20135;-76
2023/10/31 07:17:42;;;;;;;0.70;0.70;;;;;;;;;;10169031;29;20059;-75
2023/10/31 07:22:46;;;;;;;2.30;0.82;;;;;;;;;;10166402;29;20598;-75
2023/10/31 07:27:50;;;;;;;1.75;0.80;;;;;;;;;;10163273;29;20159;-75
2023/10/31 07:32:54;;;;;;;1.05;0.70;;;;;;;;;;10168651;29;20183;-75
2023/10/31 07:37:57;;;;;;;0.98;0.82;;;;;;;;;;10168449;29;20508;-75
2023/10/31 07:43:02;;;;;;;0.95;0.57;;;;;;;;;;10168038;29;20051;-75
2023/10/31 07:48:05;;;;;;;2.10;0.90;;;;;;;;;;10220823;23;20044;-75
2023/10/31 07:53:09;;;;;;;0.90;0.70;;;;;;;;;;10192030;29;20131;-75
2023/10/31 07:58:13;;;;;;;1.40;0.80;;;;;;;;;;10183355;29;20109;-75
2023/10/31 08:03:17;;;;;;;0.95;0.82;;;;;;;;;;10197943;29;20040;-75
2023/10/31 08:08:20;;;;;;;1.40;0.98;;;;;;;;;;10172947;29;20079;-75
2023/10/31 08:13:25;;;;;;;2.83;1.30;;;;;;;;;;10186454;29;20051;-75
2023/10/31 08:18:28;;;;;;;1.27;1.00;;;;;;;;;;10192683;29;20052;-75
2023/10/31 08:23:31;;;;;;;1.55;1.05;;;;;;;;;;10194591;29;20059;-75
2023/10/31 08:28:36;;;;;;;2.70;1.10;;;;;;;;;;10193277;29;20055;-75
2023/10/31 08:33:39;;;;;;;1.65;0.70;;;;;;;;;;10194461;29;20044;-76
2023/10/31 08:38:42;;;;;;;1.60;0.70;;;;;;;;;;10170385;29;20056;-75
2023/10/31 08:43:47;;;;;;;2.50;1.05;;;;;;;;;;10222499;29;20122;-75
2023/10/31 08:48:50;;;;;;;1.40;0.60;;;;;;;;;;10230053;28;20059;-77
2023/10/31 08:53:54;;;;;;;0.77;0.70;;;;;;;;;;10237985;29;20058;-77
2023/10/31 08:58:58;;;;;;;1.00;0.80;;;;;;;;;;10233487;29;20059;-77
2023/10/31 09:04:01;;;;;;;0.75;0.60;;;;;;;;;;10212621;29;20054;-77
2023/10/31 09:09:05;;;;;;;1.83;0.70;;;;;;;;;;10228155;29;20135;-77
2023/10/31 09:14:09;;;;;;;1.17;0.88;;;;;;;;;;10233835;29;20146;-77
2023/10/31 09:19:13;;;;;;;1.40;0.75;;;;;;;;;;10230982;29;20056;-77
2023/10/31 09:24:16;;;;;;;1.85;0.80;;;;;;;;;;10228805;29;20086;-77
2023/10/31 09:29:20;;;;;;;2.47;0.75;;;;;;;;;;10232964;29;20044;-76
2023/10/31 09:34:24;;;;;;;1.90;0.88;;;;;;;;;;10233715;29;20059;-77
2023/10/31 09:39:28;;;;;;;2.88;1.08;;;;;;;;;;10212275;29;20058;-77
2023/10/31 09:44:33;;;;;;;1.33;0.70;;;;;;;;;;10241084;29;20051;-76
2023/10/31 09:49:37;;;;;;;1.63;0.63;;;;;;;;;;10233349;29;20047;-77
2023/10/31 09:54:42;;;;;;;0.88;0.50;;;;;;;;;;10232334;29;20066;-77
2023/10/31 09:59:48;;;;;;;0.85;0.50;;;;;;;;;;10218573;29;20056;-77
2023/10/31 10:04:51;;;;;;;0.50;0.43;;;;;;;;;;10234479;29;20667;-77
2023/10/31 10:09:56;;;;;;;1.30;0.70;;;;;;;;;;10231933;29;20521;-77
2023/10/31 10:15:01;;;;;;;3.50;0.80;;;;;;;;;;10237311;29;20127;-77
2023/10/31 10:20:09;;;;;;;1.13;0.70;;;;;;;;;;10233646;29;20065;-77
2023/10/31 10:25:15;;;;;;;1.00;0.60;;;;;;;;;;10228723;29;20043;-76
2023/10/31 10:30:19;;;;;;;1.95;0.93;;;;;;;;;;10222272;29;20166;-76
2023/10/31 10:35:23;;;;;;;1.25;0.73;;;;;;;;;;10209477;29;20043;-77
2023/10/31 10:40:27;;;;;;;1.30;0.93;;;;;;;;;;10225442;29;20516;-77
2023/10/31 10:45:32;;;;;;;4.13;1.13;;;;;;;;;;10235752;29;20130;-76
2023/10/31 10:50:39;;;;;;;1.83;0.70;;;;;;;;;;10229367;29;20055;-77
2023/10/31 10:55:47;;;;;;;3.22;0.63;;;;;;;;;;10219270;29;20143;-77
2023/10/31 11:00:54;;;;;;;6.30;1.05;;;;;;;;;;10237727;29;20043;-77
2023/10/31 11:05:57;;;;;;;1.73;0.90;;;;;;;;;;10232573;29;20127;-76
2023/10/31 11:11:01;;;;;;;1.65;0.70;;;;;;;;;;10237271;28;20408;-77
2023/10/31 11:16:12;;;;;;;2.63;1.05;;;;;;;;;;10236636;29;20048;-76
2023/10/31 11:21:16;;;;;;;1.20;0.88;;;;;;;;;;10230973;29;20461;-77
2023/10/31 11:26:19;;;;;;;3.50;1.02;;;;;;;;;;10237660;29;20050;-76
2023/10/31 11:31:24;;;;;;;4.90;1.13;;;;;;;;;;10236723;29;20050;-76
2023/10/31 11:36:27;;;;;;;1.98;0.95;;;;;;;;;;10235413;29;20525;-77
2023/10/31 11:41:34;;;;;;;2.10;0.70;;;;;;;;;;10229948;29;20071;-77
2023/10/31 11:46:38;;;;;;;6.55;1.48;;;;;;;;;;10231532;29;20047;-76
2023/10/31 11:51:45;;;;;;;2.13;1.08;;;;;;;;;;10235663;29;20141;-76
2023/10/31 11:56:52;;;;;;;1.67;1.10;;;;;;;;;;10228773;29;20609;-76
2023/10/31 12:01:57;;;;;;;4.05;0.90;;;;;;;;;;10238830;29;20051;-75
2023/10/31 12:07:01;;;;;;;2.05;0.90;;;;;;;;;;10236350;29;20472;-76
2023/10/31 12:12:04;;;;;;;2.25;0.77;;;;;;;;;;10231538;29;20100;-76
2023/10/31 12:17:09;;;;;;;1.63;0.88;;;;;;;;;;10236503;29;20473;-76
2023/10/31 12:22:16;;;;;;;2.10;0.70;;;;;;;;;;10237591;28;20054;-76
2023/10/31 12:27:19;;;;;;;;;;;;;;;;;;10223041;29;20051;-77
2023/10/31 12:32:24;;;;;;;4.70;0.90;;;;;;;;;;10220075;29;19926;-77
2023/10/31 12:37:27;;;;;;;2.97;0.65;;;;;;;;;;10237000;29;20151;-76
2023/10/31 12:42:33;;;;;;;1.42;0.73;;;;;;;;;;10224377;29;20055;-77
2023/10/31 12:47:37;;;;;;;1.23;0.85;;;;;;;;;;10233241;29;20081;-76
2023/10/31 12:52:51;;;;;;;2.20;0.88;;;;;;;;;;10216756;29;20445;-76
2023/10/31 12:57:55;;;;;;;2.67;1.10;;;;;;;;;;10229030;29;20059;-76
2023/10/31 13:03:04;;;;;;;2.92;0.80;;;;;;;;;;10226818;29;20062;-75
2023/10/31 13:08:15;;;;;;;6.47;1.33;;;;;;;;;;10230499;29;20379;-75
2023/10/31 13:13:19;;;;;;;2.10;1.02;;;;;;;;;;10230649;29;20048;-75
2023/10/31 13:18:23;;;;;;;4.78;1.10;;;;;;;;;;10228532;29;20486;-76
2023/10/31 13:23:26;;;;;;;3.83;0.77;;;;;;;;;;10220442;29;20055;-76
2023/10/31 13:28:32;;;;;;;2.25;0.77;;;;;;;;;;10230638;29;20051;-75
2023/10/31 13:33:36;;;;;;;1.20;0.60;;;;;;;;;;10209017;29;20513;-77
2023/10/31 13:38:40;;;;;;;3.03;0.77;;;;;;;;;;10230144;29;20618;-77
2023/10/31 13:43:43;;;;;;;2.47;1.00;;;;;;;;;;10219988;29;20134;-76
2023/10/31 13:48:47;;;;;;;2.88;0.63;;;;;;;;;;10223827;29;20130;-76
2023/10/31 13:53:51;;;;;;;3.63;1.02;;;;;;;;;;10231509;29;20055;-76
2023/10/31 13:58:54;;;;;;;3.13;0.85;;;;;;;;;;10213139;29;20488;-76
2023/10/31 14:03:58;;;;;;;3.00;1.00;;;;;;;;;;10225311;29;20059;-76
2023/10/31 14:09:04;;;;;;;3.78;1.00;;;;;;;;;;10228245;29;20491;-77
2023/10/31 14:14:10;;;;;;;4.90;0.80;;;;;;;;;;10239571;29;20082;-76
2023/10/31 14:19:16;;;;;;;6.00;0.93;;;;;;;;;;10229741;29;20047;-76
2023/10/31 14:24:19;;;;;;;2.10;0.88;;;;;;;;;;10220306;29;20082;-76
2023/10/31 14:29:23;;;;;;;1.85;0.77;;;;;;;;;;10235677;29;20580;-76
2023/10/31 14:34:27;;;;;;;2.90;0.63;;;;;;;;;;10229228;29;20409;-76
2023/10/31 14:39:30;;;;;;;2.00;0.80;;;;;;;;;;10226129;29;20043;-76
2023/10/31 14:44:34;;;;;;;1.25;0.60;;;;;;;;;;10234128;28;20412;-76
2023/10/31 14:49:38;;;;;;;2.05;0.70;;;;;;;;;;10213150;29;20052;-76
2023/10/31 14:54:42;;;;;;;2.25;0.60;;;;;;;;;;10235140;29;20098;-76
2023/10/31 14:59:45;;;;;;;1.40;0.60;;;;;;;;;;10239850;29;20055;-76
2023/10/31 15:04:51;;;;;;;4.28;0.90;;;;;;;;;;10237657;29;20078;-75
2023/10/31 15:09:54;;;;;;;1.75;0.68;;;;;;;;;;10230559;29;20046;-76
2023/10/31 15:14:58;;;;;;;2.53;0.70;;;;;;;;;;10239547;29;20057;-76
2023/10/31 15:20:02;;;;;;;1.38;0.60;;;;;;;;;;10225330;29;20057;-75
2023/10/31 15:25:06;;;;;;;1.02;0.50;;;;;;;;;;10220888;29;20111;-75
2023/10/31 15:30:10;;;;;;;0.75;0.52;;;;;;;;;;10237505;29;20142;-76
2023/10/31 15:35:15;;;;;;;1.50;0.55;;;;;;;;;;10214570;29;20055;-75
2023/10/31 15:40:18;;;;;;;0.68;0.30;;;;;;;;;;10210433;29;20079;-75
2023/10/31 15:45:22;;;;;;;0.22;0.20;;;;;;;;;;10181757;29;1101824;-76
2023/10/31 15:50:26;;;;;;;0.50;0.22;;;;;;;;;;10222462;29;20193;-75
2023/10/31 15:55:31;;;;;;;0.80;0.22;;;;;;;;;;10227383;29;20051;-76
2023/10/31 16:00:35;;;;;;;1.88;0.40;;;;;;;;;;10238028;29;20456;-75
2023/10/31 16:05:39;;;;;;;1.05;0.40;;;;;;;;;;10234055;29;20051;-75
2023/10/31 16:10:42;;;;;;;2.28;0.52;;;;;;;;;;10221159;29;20134;-75
2023/10/31 16:15:46;;;;;;;0.80;0.50;;;;;;;;;;10214416;29;20058;-76
2023/10/31 16:20:50;;;;;;;1.15;0.40;;;;;;;;;;10225357;29;20141;-76
2023/10/31 16:25:55;;;;;;;0.43;0.43;;;;;;;;;;10215125;29;20039;-76
2023/10/31 16:30:59;;;;;;;0.93;0.40;;;;;;;;;;10232998;29;20048;-76
2023/10/31 16:36:04;;;;;;;2.03;0.70;;;;;;;;;;10206823;29;20501;-75
2023/10/31 16:41:09;;;;;;;1.05;0.52;;;;;;;;;;10211115;29;20051;-76
2023/10/31 16:46:13;;;;;;;1.33;0.37;;;;;;;;;;10234553;29;20054;-76
2023/10/31 16:51:19;;;;;;;0.20;0.20;;;;;;;;;;10221789;29;20496;-75
2023/10/31 16:56:23;;;;;;;1.85;0.30;;;;;;;;;;10212133;29;20047;-75
2023/10/31 17:01:26;;;;;;;0.50;0.32;;;;;;;;;;10231705;29;20051;-75
2023/10/31 17:06:31;;;;;;;0.40;0.22;;;;;;;;;;10218246;29;20051;-76
2023/10/31 17:11:34;;;;;;;0.32;0.30;;;;;;;;;;10226707;29;20129;-75
2023/10/31 17:16:38;;;;;;;0.55;0.50;;;;;;;;;;10210386;29;20055;-76
2023/10/31 17:21:44;;;;;;;1.67;0.70;;;;;;;;;;10222262;29;20059;-75
2023/10/31 17:26:47;;;;;;;0.40;0.40;;;;;;;;;;10232750;29;20131;-75
2023/10/31 17:31:51;;;;;;;1.10;0.60;;;;;;;;;;10223867;29;20066;-75
2023/10/31 17:36:58;;;;;;;1.95;0.80;;;;;;;;;;10232892;29;20146;-75
2023/10/31 17:42:01;;;;;;;0.80;0.45;;;;;;;;;;10231220;29;20070;-76
2023/10/31 17:47:06;;;;;;;1.38;0.52;;;;;;;;;;10236480;29;20214;-75
2023/10/31 17:52:10;;;;;;;0.70;0.47;;;;;;;;;;10217548;29;20162;-76
2023/10/31 17:57:18;;;;;;;0.77;0.60;;;;;;;;;;10228992;29;20142;-75
2023/10/31 18:02:21;;;;;;;1.23;0.60;;;;;;;;;;10218010;29;20051;-75
2023/10/31 18:07:26;;;;;;;1.13;0.60;;;;;;;;;;10217838;29;20051;-76
2023/10/31 18:12:29;;;;;;;1.10;0.60;;;;;;;;;;10223445;29;20159;-76
2023/10/31 18:17:33;;;;;;;1.05;0.50;;;;;;;;;;10214119;29;20075;-76
2023/10/31 18:22:38;;;;;;;0.68;0.47;;;;;;;;;;10224309;29;20047;-76
2023/10/31 18:27:42;;;;;;;0.88;0.50;;;;;;;;;;10213112;29;20568;-76
2023/10/31 18:32:46;;;;;;;0.73;0.70;;;;;;;;;;10198644;29;20059;-76
2023/10/31 18:37:50;;;;;;;1.95;0.80;;;;;;;;;;10232634;29;20055;-76
2023/10/31 18:42:54;;;;;;;1.00;0.52;;;;;;;;;;10220335;29;20058;-75
2023/10/31 18:47:57;;;;;;;1.17;0.70;;;;;;;;;;10198806;29;20081;-76
2023/10/31 18:53:01;;;;;;;1.17;0.70;;;;;;;;;;10227038;29;20063;-75
2023/10/31 18:58:05;;;;;;;0.90;0.70;;;;;;;;;;10230573;29;20050;-75
2023/10/31 19:03:08;;;;;;;0.93;0.80;;;;;;;;;;10223317;29;20706;-76
2023/10/31 19:08:13;;;;;;;0.70;0.50;;;;;;;;;;10228566;29;20051;-76
2023/10/31 19:13:17;;;;;;;0.60;0.40;;;;;;;;;;10224705;29;20067;-75
2023/10/31 19:18:22;;;;;;;2.63;0.90;;;;;;;;;;10226171;29;20046;-76
2023/10/31 19:23:26;;;;;;;3.15;0.80;;;;;;;;;;10225607;29;20146;-76
2023/10/31 19:28:29;;;;;;;1.52;0.90;;;;;;;;;;10224688;29;20513;-75
2023/10/31 19:33:33;;;;;;;2.20;1.05;;;;;;;;;;10233192;29;20532;-76
2023/10/31 19:38:37;;;;;;;1.50;0.70;;;;;;;;;;10231318;29;20589;-75
